sensor_id;sensor_type;location;lat;lon;timestamp;temperature;humidity
45549;DHT22;31270;48.328;10.096;2023-09-19T00:01:06;15.80;99.90
45549;DHT22;31270;48.328;10.096;2023-09-19T00:03:35;15.80;99.90
45549;DHT22;31270;48.328;10.096;2023-09-19T00:06:04;15.90;99.90
45549;DHT22;31270;48.328;10.096;2023-09-19T00:08:31;15.90;99.90
45549;DHT22;31270;48.328;10.096;2023-09-19T00:10:58;15.90;99.90
45549;DHT22;31270;48.328;10.096;2023-09-19T00:13:29;15.90;99.90
45549;DHT22;31270;48.328;10.096;2023-09-19T00:15:56;16.00;99.90
45549;DHT22;31270;48.328;10.096;2023-09-19T00:18:24;15.90;99.90
45549;DHT22;31270;48.328;10.096;2023-09-19T00:20:57;15.70;99.90
45549;DHT22;31270;48.328;10.096;2023-09-19T00:23:22;15.80;99.90
45549;DHT22;31270;48.328;10.096;2023-09-19T00:25:50;15.70;99.90
45549;DHT22;31270;48.328;10.096;2023-09-19T00:28:17;15.80;99.90
45549;DHT22;31270;48.328;10.096;2023-09-19T00:30:45;15.80;99.90
45549;DHT22;31270;48.328;10.096;2023-09-19T00:33:15;15.80;99.90
45549;DHT22;31270;48.328;10.096;2023-09-19T00:35:47;15.80;99.90
45549;DHT22;31270;48.328;10.096;2023-09-19T00:38:13;15.70;99.90
45549;DHT22;31270;48.328;10.096;2023-09-19T00:40:44;15.70;99.90
45549;DHT22;31270;48.328;10.096;2023-09-19T00:43:10;15.60;99.90
45549;DHT22;31270;48.328;10.096;2023-09-19T00:45:37;15.60;99.90
45549;DHT22;31270;48.328;10.096;2023-09-19T00:48:04;15.70;99.90
45549;DHT22;31270;48.328;10.096;2023-09-19T00:50:35;15.60;99.90
45549;DHT22;31270;48.328;10.096;2023-09-19T00:53:02;15.60;99.90
45549;DHT22;31270;48.328;10.096;2023-09-19T00:55:34;15.60;99.90
45549;DHT22;31270;48.328;10.096;2023-09-19T00:58:00;15.70;99.90
45549;DHT22;31270;48.328;10.096;2023-09-19T01:00:26;15.60;99.90
45549;DHT22;31270;48.328;10.096;2023-09-19T01:02:52;15.50;99.90
45549;DHT22;31270;48.328;10.096;2023-09-19T01:05:19;15.50;99.90
45549;DHT22;31270;48.328;10.096;2023-09-19T01:07:45;15.50;99.90
45549;DHT22;31270;48.328;10.096;2023-09-19T01:10:19;15.50;99.90
45549;DHT22;31270;48.328;10.096;2023-09-19T01:13:06;15.40;99.90
45549;DHT22;31270;48.328;10.096;2023-09-19T01:15:51;15.40;99.90
45549;DHT22;31270;48.328;10.096;2023-09-19T01:30:32;15.40;99.90
45549;DHT22;31270;48.328;10.096;2023-09-19T01:33:01;15.40;99.90
45549;DHT22;31270;48.328;10.096;2023-09-19T01:35:27;15.40;99.90
45549;DHT22;31270;48.328;10.096;2023-09-19T01:37:53;15.40;99.90
45549;DHT22;31270;48.328;10.096;2023-09-19T01:40:21;15.50;99.90
45549;DHT22;31270;48.328;10.096;2023-09-19T01:42:56;15.40;99.90
45549;DHT22;31270;48.328;10.096;2023-09-19T01:46:04;15.40;99.90
45549;DHT22;31270;48.328;10.096;2023-09-19T01:48:42;15.40;99.90
45549;DHT22;31270;48.328;10.096;2023-09-19T01:51:16;15.40;99.90
45549;DHT22;31270;48.328;10.096;2023-09-19T01:53:55;15.40;99.90
45549;DHT22;31270;48.328;10.096;2023-09-19T01:59:06;15.40;99.90
45549;DHT22;31270;48.328;10.096;2023-09-19T02:01:33;15.40;99.90
45549;DHT22;31270;48.328;10.096;2023-09-19T02:04:00;15.30;99.90
45549;DHT22;31270;48.328;10.096;2023-09-19T02:06:26;15.40;99.90
45549;DHT22;31270;48.328;10.096;2023-09-19T02:08:54;15.40;99.90
45549;DHT22;31270;48.328;10.096;2023-09-19T02:11:19;15.50;99.90
45549;DHT22;31270;48.328;10.096;2023-09-19T02:13:45;15.60;99.90
45549;DHT22;31270;48.328;10.096;2023-09-19T02:16:11;15.40;99.90
45549;DHT22;31270;48.328;10.096;2023-09-19T02:18:38;15.40;99.90
45549;DHT22;31270;48.328;10.096;2023-09-19T02:21:05;15.30;99.90
45549;DHT22;31270;48.328;10.096;2023-09-19T02:23:32;15.40;99.90
45549;DHT22;31270;48.328;10.096;2023-09-19T02:25:59;15.40;99.90
45549;DHT22;31270;48.328;10.096;2023-09-19T02:28:30;15.40;99.90
45549;DHT22;31270;48.328;10.096;2023-09-19T02:31:00;15.40;99.90
45549;DHT22;31270;48.328;10.096;2023-09-19T02:33:26;15.40;99.90
45549;DHT22;31270;48.328;10.096;2023-09-19T02:35:55;15.40;99.90
45549;DHT22;31270;48.328;10.096;2023-09-19T02:38:23;15.40;99.90
45549;DHT22;31270;48.328;10.096;2023-09-19T02:40:50;15.40;99.90
45549;DHT22;31270;48.328;10.096;2023-09-19T02:43:16;15.40;99.90
45549;DHT22;31270;48.328;10.096;2023-09-19T02:45:42;15.40;99.90
45549;DHT22;31270;48.328;10.096;2023-09-19T02:48:08;15.40;99.90
45549;DHT22;31270;48.328;10.096;2023-09-19T02:50:34;15.50;99.90
45549;DHT22;31270;48.328;10.096;2023-09-19T02:53:00;15.50;99.90
45549;DHT22;31270;48.328;10.096;2023-09-19T02:55:25;15.50;99.90
45549;DHT22;31270;48.328;10.096;2023-09-19T02:57:53;15.50;99.90
45549;DHT22;31270;48.328;10.096;2023-09-19T03:00:20;15.50;99.90
45549;DHT22;31270;48.328;10.096;2023-09-19T03:02:50;15.50;99.90
45549;DHT22;31270;48.328;10.096;2023-09-19T03:05:16;15.50;99.90
45549;DHT22;31270;48.328;10.096;2023-09-19T03:07:42;15.50;99.90
45549;DHT22;31270;48.328;10.096;2023-09-19T03:10:30;15.50;99.90
45549;DHT22;31270;48.328;10.096;2023-09-19T03:12:57;15.50;99.90
45549;DHT22;31270;48.328;10.096;2023-09-19T03:15:25;15.60;99.90
45549;DHT22;31270;48.328;10.096;2023-09-19T03:17:50;15.50;99.90
45549;DHT22;31270;48.328;10.096;2023-09-19T03:20:18;15.70;99.90
45549;DHT22;31270;48.328;10.096;2023-09-19T03:22:45;15.60;99.90
45549;DHT22;31270;48.328;10.096;2023-09-19T03:25:11;15.70;99.90
45549;DHT22;31270;48.328;10.096;2023-09-19T03:27:38;15.70;99.90
45549;DHT22;31270;48.328;10.096;2023-09-19T03:30:05;15.50;99.90
45549;DHT22;31270;48.328;10.096;2023-09-19T03:32:37;15.50;99.90
45549;DHT22;31270;48.328;10.096;2023-09-19T03:35:08;15.50;99.90
45549;DHT22;31270;48.328;10.096;2023-09-19T03:37:43;15.50;99.90
45549;DHT22;31270;48.328;10.096;2023-09-19T03:40:10;15.50;99.90
45549;DHT22;31270;48.328;10.096;2023-09-19T03:42:40;15.40;99.90
45549;DHT22;31270;48.328;10.096;2023-09-19T03:45:07;15.50;99.90
45549;DHT22;31270;48.328;10.096;2023-09-19T03:47:36;15.40;99.90
45549;DHT22;31270;48.328;10.096;2023-09-19T03:50:02;15.40;99.90
45549;DHT22;31270;48.328;10.096;2023-09-19T03:52:28;15.40;99.90
45549;DHT22;31270;48.328;10.096;2023-09-19T03:54:54;15.40;99.90
45549;DHT22;31270;48.328;10.096;2023-09-19T03:57:20;15.30;99.90
45549;DHT22;31270;48.328;10.096;2023-09-19T03:59:46;15.30;99.90
45549;DHT22;31270;48.328;10.096;2023-09-19T04:02:13;15.30;99.90
45549;DHT22;31270;48.328;10.096;2023-09-19T04:04:48;15.30;99.90
45549;DHT22;31270;48.328;10.096;2023-09-19T04:07:13;15.20;99.90
45549;DHT22;31270;48.328;10.096;2023-09-19T04:09:39;15.20;99.90
45549;DHT22;31270;48.328;10.096;2023-09-19T04:12:05;15.20;99.90
45549;DHT22;31270;48.328;10.096;2023-09-19T04:14:31;15.10;99.90
45549;DHT22;31270;48.328;10.096;2023-09-19T04:16:57;15.20;99.90
45549;DHT22;31270;48.328;10.096;2023-09-19T04:19:22;15.10;99.90
45549;DHT22;31270;48.328;10.096;2023-09-19T04:21:48;15.10;99.90
45549;DHT22;31270;48.328;10.096;2023-09-19T04:24:13;15.10;99.90
45549;DHT22;31270;48.328;10.096;2023-09-19T04:26:39;15.10;99.90
45549;DHT22;31270;48.328;10.096;2023-09-19T04:29:05;15.10;99.90
45549;DHT22;31270;48.328;10.096;2023-09-19T04:31:31;15.20;99.90
45549;DHT22;31270;48.328;10.096;2023-09-19T04:33:57;15.20;99.90
45549;DHT22;31270;48.328;10.096;2023-09-19T04:36:24;15.10;99.90
45549;DHT22;31270;48.328;10.096;2023-09-19T04:38:50;15.20;99.90
45549;DHT22;31270;48.328;10.096;2023-09-19T04:41:15;15.20;99.90
45549;DHT22;31270;48.328;10.096;2023-09-19T04:43:41;15.10;99.90
45549;DHT22;31270;48.328;10.096;2023-09-19T04:46:13;15.20;99.90
45549;DHT22;31270;48.328;10.096;2023-09-19T04:48:39;15.20;99.90
45549;DHT22;31270;48.328;10.096;2023-09-19T04:51:05;15.20;99.90
45549;DHT22;31270;48.328;10.096;2023-09-19T04:53:31;15.20;99.90
45549;DHT22;31270;48.328;10.096;2023-09-19T04:55:56;15.20;99.90
45549;DHT22;31270;48.328;10.096;2023-09-19T04:58:23;15.30;99.90
45549;DHT22;31270;48.328;10.096;2023-09-19T05:00:49;15.20;99.90
45549;DHT22;31270;48.328;10.096;2023-09-19T05:03:17;15.30;99.90
45549;DHT22;31270;48.328;10.096;2023-09-19T05:05:42;15.40;99.90
45549;DHT22;31270;48.328;10.096;2023-09-19T05:08:08;15.10;99.90
45549;DHT22;31270;48.328;10.096;2023-09-19T05:10:35;15.30;99.90
45549;DHT22;31270;48.328;10.096;2023-09-19T05:13:04;15.30;99.90
45549;DHT22;31270;48.328;10.096;2023-09-19T05:15:30;15.30;99.90
45549;DHT22;31270;48.328;10.096;2023-09-19T05:17:56;15.40;99.90
45549;DHT22;31270;48.328;10.096;2023-09-19T05:20:27;15.30;99.90
45549;DHT22;31270;48.328;10.096;2023-09-19T05:23:05;15.40;99.90
45549;DHT22;31270;48.328;10.096;2023-09-19T05:25:35;15.30;99.90
45549;DHT22;31270;48.328;10.096;2023-09-19T05:28:03;15.40;99.90
45549;DHT22;31270;48.328;10.096;2023-09-19T05:30:32;15.40;99.90
45549;DHT22;31270;48.328;10.096;2023-09-19T05:32:58;15.40;99.90
45549;DHT22;31270;48.328;10.096;2023-09-19T05:35:24;15.40;99.90
45549;DHT22;31270;48.328;10.096;2023-09-19T05:37:50;15.40;99.90
45549;DHT22;31270;48.328;10.096;2023-09-19T05:40:19;15.40;99.90
45549;DHT22;31270;48.328;10.096;2023-09-19T05:42:46;15.40;99.90
45549;DHT22;31270;48.328;10.096;2023-09-19T05:45:13;15.50;99.90
45549;DHT22;31270;48.328;10.096;2023-09-19T05:47:39;15.50;99.90
45549;DHT22;31270;48.328;10.096;2023-09-19T05:50:12;15.50;99.90
45549;DHT22;31270;48.328;10.096;2023-09-19T05:52:38;15.50;99.90
45549;DHT22;31270;48.328;10.096;2023-09-19T05:55:07;15.50;99.90
45549;DHT22;31270;48.328;10.096;2023-09-19T05:57:36;15.60;99.90
45549;DHT22;31270;48.328;10.096;2023-09-19T06:00:02;15.60;99.90
45549;DHT22;31270;48.328;10.096;2023-09-19T06:02:35;15.70;99.90
45549;DHT22;31270;48.328;10.096;2023-09-19T06:05:01;15.60;99.90
45549;DHT22;31270;48.328;10.096;2023-09-19T06:07:26;15.60;99.90
45549;DHT22;31270;48.328;10.096;2023-09-19T06:10:05;15.60;99.90
45549;DHT22;31270;48.328;10.096;2023-09-19T06:12:32;15.60;99.90
45549;DHT22;31270;48.328;10.096;2023-09-19T06:14:59;15.60;99.90
45549;DHT22;31270;48.328;10.096;2023-09-19T06:17:25;15.60;99.90
45549;DHT22;31270;48.328;10.096;2023-09-19T06:19:53;15.60;99.90
45549;DHT22;31270;48.328;10.096;2023-09-19T06:22:18;15.70;99.90
45549;DHT22;31270;48.328;10.096;2023-09-19T06:24:44;15.60;99.90
45549;DHT22;31270;48.328;10.096;2023-09-19T06:27:10;15.50;99.90
45549;DHT22;31270;48.328;10.096;2023-09-19T06:29:36;15.60;99.90
45549;DHT22;31270;48.328;10.096;2023-09-19T06:32:09;15.80;99.90
45549;DHT22;31270;48.328;10.096;2023-09-19T06:34:36;16.00;99.90
45549;DHT22;31270;48.328;10.096;2023-09-19T06:37:02;16.20;99.90
45549;DHT22;31270;48.328;10.096;2023-09-19T06:39:29;16.40;99.90
45549;DHT22;31270;48.328;10.096;2023-09-19T06:41:54;16.70;99.90
45549;DHT22;31270;48.328;10.096;2023-09-19T06:44:20;16.90;99.90
45549;DHT22;31270;48.328;10.096;2023-09-19T06:46:50;17.00;99.90
45549;DHT22;31270;48.328;10.096;2023-09-19T06:49:17;17.00;99.90
45549;DHT22;31270;48.328;10.096;2023-09-19T06:51:43;16.90;99.90
45549;DHT22;31270;48.328;10.096;2023-09-19T06:54:09;16.90;99.90
45549;DHT22;31270;48.328;10.096;2023-09-19T06:56:35;17.00;99.90
45549;DHT22;31270;48.328;10.096;2023-09-19T06:59:01;16.80;99.90
45549;DHT22;31270;48.328;10.096;2023-09-19T07:01:28;16.80;99.90
45549;DHT22;31270;48.328;10.096;2023-09-19T07:03:53;16.90;99.90
45549;DHT22;31270;48.328;10.096;2023-09-19T07:06:20;17.00;99.90
45549;DHT22;31270;48.328;10.096;2023-09-19T07:08:45;17.10;99.90
45549;DHT22;31270;48.328;10.096;2023-09-19T07:11:11;17.20;99.90
45549;DHT22;31270;48.328;10.096;2023-09-19T07:13:38;17.30;99.90
45549;DHT22;31270;48.328;10.096;2023-09-19T07:16:10;17.60;99.90
45549;DHT22;31270;48.328;10.096;2023-09-19T07:18:53;17.70;99.90
45549;DHT22;31270;48.328;10.096;2023-09-19T07:21:20;17.90;99.90
45549;DHT22;31270;48.328;10.096;2023-09-19T07:23:46;18.20;99.90
45549;DHT22;31270;48.328;10.096;2023-09-19T07:26:12;18.40;99.90
45549;DHT22;31270;48.328;10.096;2023-09-19T07:28:39;18.50;99.90
45549;DHT22;31270;48.328;10.096;2023-09-19T07:31:04;18.60;99.90
45549;DHT22;31270;48.328;10.096;2023-09-19T07:33:31;18.60;99.90
45549;DHT22;31270;48.328;10.096;2023-09-19T07:35:56;18.50;99.90
45549;DHT22;31270;48.328;10.096;2023-09-19T07:38:22;18.50;99.90
45549;DHT22;31270;48.328;10.096;2023-09-19T07:40:48;18.50;99.90
45549;DHT22;31270;48.328;10.096;2023-09-19T07:43:14;18.30;99.90
45549;DHT22;31270;48.328;10.096;2023-09-19T07:45:39;18.50;99.90
45549;DHT22;31270;48.328;10.096;2023-09-19T07:48:05;18.60;99.90
45549;DHT22;31270;48.328;10.096;2023-09-19T07:50:33;18.60;99.90
45549;DHT22;31270;48.328;10.096;2023-09-19T07:53:02;18.60;99.90
45549;DHT22;31270;48.328;10.096;2023-09-19T07:55:30;18.60;99.90
45549;DHT22;31270;48.328;10.096;2023-09-19T07:57:55;18.60;99.90
45549;DHT22;31270;48.328;10.096;2023-09-19T08:00:21;18.70;99.90
45549;DHT22;31270;48.328;10.096;2023-09-19T08:02:47;18.60;99.90
45549;DHT22;31270;48.328;10.096;2023-09-19T08:05:13;18.90;99.90
45549;DHT22;31270;48.328;10.096;2023-09-19T08:07:44;18.70;99.90
45549;DHT22;31270;48.328;10.096;2023-09-19T08:10:14;18.80;99.90
45549;DHT22;31270;48.328;10.096;2023-09-19T08:12:42;19.00;99.90
45549;DHT22;31270;48.328;10.096;2023-09-19T08:15:21;19.10;99.90
45549;DHT22;31270;48.328;10.096;2023-09-19T08:17:47;19.00;99.90
45549;DHT22;31270;48.328;10.096;2023-09-19T08:20:13;19.00;99.90
45549;DHT22;31270;48.328;10.096;2023-09-19T08:25:15;18.70;99.90
45549;DHT22;31270;48.328;10.096;2023-09-19T08:27:43;18.90;99.90
45549;DHT22;31270;48.328;10.096;2023-09-19T08:30:14;19.00;99.90
45549;DHT22;31270;48.328;10.096;2023-09-19T08:32:40;19.10;99.90
45549;DHT22;31270;48.328;10.096;2023-09-19T08:35:08;19.50;99.90
45549;DHT22;31270;48.328;10.096;2023-09-19T08:37:34;19.40;99.90
45549;DHT22;31270;48.328;10.096;2023-09-19T08:40:00;19.50;99.90
45549;DHT22;31270;48.328;10.096;2023-09-19T08:42:26;19.80;99.90
45549;DHT22;31270;48.328;10.096;2023-09-19T08:44:52;20.10;99.90
45549;DHT22;31270;48.328;10.096;2023-09-19T08:47:40;20.20;99.90
45549;DHT22;31270;48.328;10.096;2023-09-19T08:50:26;20.30;99.90
45549;DHT22;31270;48.328;10.096;2023-09-19T08:52:55;20.20;99.90
45549;DHT22;31270;48.328;10.096;2023-09-19T08:55:26;20.20;99.90
45549;DHT22;31270;48.328;10.096;2023-09-19T08:58:02;20.10;99.90
45549;DHT22;31270;48.328;10.096;2023-09-19T09:00:29;20.10;99.90
45549;DHT22;31270;48.328;10.096;2023-09-19T09:02:56;20.10;99.90
45549;DHT22;31270;48.328;10.096;2023-09-19T09:05:23;20.30;99.90
45549;DHT22;31270;48.328;10.096;2023-09-19T09:07:50;20.30;99.90
45549;DHT22;31270;48.328;10.096;2023-09-19T09:10:21;20.40;99.90
45549;DHT22;31270;48.328;10.096;2023-09-19T09:12:52;20.70;99.90
45549;DHT22;31270;48.328;10.096;2023-09-19T09:15:23;20.80;99.90
45549;DHT22;31270;48.328;10.096;2023-09-19T09:17:52;20.70;99.90
45549;DHT22;31270;48.328;10.096;2023-09-19T09:20:19;20.70;99.90
45549;DHT22;31270;48.328;10.096;2023-09-19T09:22:52;20.70;99.90
45549;DHT22;31270;48.328;10.096;2023-09-19T09:25:19;20.60;99.90
45549;DHT22;31270;48.328;10.096;2023-09-19T09:27:58;20.40;99.90
45549;DHT22;31270;48.328;10.096;2023-09-19T09:30:36;20.40;99.90
45549;DHT22;31270;48.328;10.096;2023-09-19T09:33:10;20.40;99.90
45549;DHT22;31270;48.328;10.096;2023-09-19T09:38:21;20.30;99.90
45549;DHT22;31270;48.328;10.096;2023-09-19T09:40:52;20.50;99.90
45549;DHT22;31270;48.328;10.096;2023-09-19T09:43:39;20.50;99.90
45549;DHT22;31270;48.328;10.096;2023-09-19T09:46:17;20.60;99.90
45549;DHT22;31270;48.328;10.096;2023-09-19T09:49:06;20.60;99.90
45549;DHT22;31270;48.328;10.096;2023-09-19T09:52:12;20.60;99.90
45549;DHT22;31270;48.328;10.096;2023-09-19T09:55:00;20.70;99.90
45549;DHT22;31270;48.328;10.096;2023-09-19T09:57:27;20.50;99.90
45549;DHT22;31270;48.328;10.096;2023-09-19T09:59:57;20.30;99.90
45549;DHT22;31270;48.328;10.096;2023-09-19T10:02:46;20.10;99.90
45549;DHT22;31270;48.328;10.096;2023-09-19T10:05:20;19.80;99.90
45549;DHT22;31270;48.328;10.096;2023-09-19T10:07:51;19.40;99.90
45549;DHT22;31270;48.328;10.096;2023-09-19T10:10:32;19.30;99.90
45549;DHT22;31270;48.328;10.096;2023-09-19T10:13:14;19.30;99.90
45549;DHT22;31270;48.328;10.096;2023-09-19T10:15:51;19.10;99.90
45549;DHT22;31270;48.328;10.096;2023-09-19T10:18:24;19.10;99.90
45549;DHT22;31270;48.328;10.096;2023-09-19T10:20:50;18.90;99.90
45549;DHT22;31270;48.328;10.096;2023-09-19T10:23:21;19.20;99.90
45549;DHT22;31270;48.328;10.096;2023-09-19T10:25:52;19.40;99.90
45549;DHT22;31270;48.328;10.096;2023-09-19T10:28:19;19.80;99.90
45549;DHT22;31270;48.328;10.096;2023-09-19T10:30:49;19.90;99.90
45549;DHT22;31270;48.328;10.096;2023-09-19T10:33:18;20.30;99.90
45549;DHT22;31270;48.328;10.096;2023-09-19T10:35:47;20.40;99.90
45549;DHT22;31270;48.328;10.096;2023-09-19T10:38:15;20.40;99.90
45549;DHT22;31270;48.328;10.096;2023-09-19T10:40:53;20.50;99.90
45549;DHT22;31270;48.328;10.096;2023-09-19T10:43:20;20.80;99.90
45549;DHT22;31270;48.328;10.096;2023-09-19T10:45:48;21.20;99.90
45549;DHT22;31270;48.328;10.096;2023-09-19T10:48:20;21.50;99.90
45549;DHT22;31270;48.328;10.096;2023-09-19T10:51:09;21.80;99.90
45549;DHT22;31270;48.328;10.096;2023-09-19T10:56:26;21.60;99.90
45549;DHT22;31270;48.328;10.096;2023-09-19T10:59:05;21.60;99.90
45549;DHT22;31270;48.328;10.096;2023-09-19T11:01:48;21.60;99.90
45549;DHT22;31270;48.328;10.096;2023-09-19T11:04:35;21.90;99.90
45549;DHT22;31270;48.328;10.096;2023-09-19T11:09:55;22.80;99.90
45549;DHT22;31270;48.328;10.096;2023-09-19T11:26:48;23.40;99.90
45549;DHT22;31270;48.328;10.096;2023-09-19T11:29:27;23.70;99.90
45549;DHT22;31270;48.328;10.096;2023-09-19T11:31:54;24.10;99.90
45549;DHT22;31270;48.328;10.096;2023-09-19T11:39:39;24.30;99.90
45549;DHT22;31270;48.328;10.096;2023-09-19T11:48:23;24.20;99.90
45549;DHT22;31270;48.328;10.096;2023-09-19T11:50:51;24.30;99.90
45549;DHT22;31270;48.328;10.096;2023-09-19T11:53:18;24.40;99.90
45549;DHT22;31270;48.328;10.096;2023-09-19T11:55:45;24.40;99.90
45549;DHT22;31270;48.328;10.096;2023-09-19T11:58:14;24.50;99.90
45549;DHT22;31270;48.328;10.096;2023-09-19T12:00:44;24.50;99.90
45549;DHT22;31270;48.328;10.096;2023-09-19T12:03:12;24.80;99.90
45549;DHT22;31270;48.328;10.096;2023-09-19T12:05:40;25.00;99.90
45549;DHT22;31270;48.328;10.096;2023-09-19T12:08:07;25.00;99.90
45549;DHT22;31270;48.328;10.096;2023-09-19T12:10:46;24.80;99.90
45549;DHT22;31270;48.328;10.096;2023-09-19T12:13:18;25.10;99.90
45549;DHT22;31270;48.328;10.096;2023-09-19T12:15:45;25.30;99.90
45549;DHT22;31270;48.328;10.096;2023-09-19T12:18:29;25.30;99.90
45549;DHT22;31270;48.328;10.096;2023-09-19T12:20:55;25.30;99.90
45549;DHT22;31270;48.328;10.096;2023-09-19T12:23:21;25.50;99.90
45549;DHT22;31270;48.328;10.096;2023-09-19T12:25:47;25.30;99.90
45549;DHT22;31270;48.328;10.096;2023-09-19T12:28:15;25.60;99.90
45549;DHT22;31270;48.328;10.096;2023-09-19T12:30:42;25.80;99.90
45549;DHT22;31270;48.328;10.096;2023-09-19T12:33:19;25.90;99.90
45549;DHT22;31270;48.328;10.096;2023-09-19T12:35:45;26.00;99.90
45549;DHT22;31270;48.328;10.096;2023-09-19T12:38:21;26.30;99.90
45549;DHT22;31270;48.328;10.096;2023-09-19T12:40:49;25.80;99.90
45549;DHT22;31270;48.328;10.096;2023-09-19T12:43:17;25.90;99.90
45549;DHT22;31270;48.328;10.096;2023-09-19T12:45:43;26.30;99.90
45549;DHT22;31270;48.328;10.096;2023-09-19T12:48:24;26.30;99.90
45549;DHT22;31270;48.328;10.096;2023-09-19T12:51:03;26.30;99.90
45549;DHT22;31270;48.328;10.096;2023-09-19T12:53:34;26.10;99.90
45549;DHT22;31270;48.328;10.096;2023-09-19T12:56:03;25.60;99.90
45549;DHT22;31270;48.328;10.096;2023-09-19T12:58:34;25.40;99.90
45549;DHT22;31270;48.328;10.096;2023-09-19T13:01:00;25.80;99.90
45549;DHT22;31270;48.328;10.096;2023-09-19T13:03:29;25.90;99.90
45549;DHT22;31270;48.328;10.096;2023-09-19T13:06:01;25.90;99.90
45549;DHT22;31270;48.328;10.096;2023-09-19T13:08:29;26.00;99.90
45549;DHT22;31270;48.328;10.096;2023-09-19T13:13:46;25.50;99.90
45549;DHT22;31270;48.328;10.096;2023-09-19T13:16:15;25.60;99.90
45549;DHT22;31270;48.328;10.096;2023-09-19T13:18:49;25.20;99.90
45549;DHT22;31270;48.328;10.096;2023-09-19T13:21:26;25.10;99.90
45549;DHT22;31270;48.328;10.096;2023-09-19T13:23:53;25.30;99.90
45549;DHT22;31270;48.328;10.096;2023-09-19T13:26:25;25.80;99.90
45549;DHT22;31270;48.328;10.096;2023-09-19T13:28:51;25.90;99.90
45549;DHT22;31270;48.328;10.096;2023-09-19T13:31:17;26.00;99.90
45549;DHT22;31270;48.328;10.096;2023-09-19T13:33:48;25.80;99.90
45549;DHT22;31270;48.328;10.096;2023-09-19T13:36:14;25.80;99.90
45549;DHT22;31270;48.328;10.096;2023-09-19T13:38:41;25.80;99.90
45549;DHT22;31270;48.328;10.096;2023-09-19T13:41:09;25.50;99.90
45549;DHT22;31270;48.328;10.096;2023-09-19T13:43:36;25.60;99.90
45549;DHT22;31270;48.328;10.096;2023-09-19T13:46:01;25.60;99.90
45549;DHT22;31270;48.328;10.096;2023-09-19T13:48:27;25.60;99.90
45549;DHT22;31270;48.328;10.096;2023-09-19T13:50:55;25.60;99.90
45549;DHT22;31270;48.328;10.096;2023-09-19T13:53:22;25.40;99.90
45549;DHT22;31270;48.328;10.096;2023-09-19T13:55:47;25.20;99.90
45549;DHT22;31270;48.328;10.096;2023-09-19T13:58:14;25.60;99.90
45549;DHT22;31270;48.328;10.096;2023-09-19T14:00:40;25.60;99.90
45549;DHT22;31270;48.328;10.096;2023-09-19T14:03:06;25.60;99.90
45549;DHT22;31270;48.328;10.096;2023-09-19T14:05:31;25.50;99.90
45549;DHT22;31270;48.328;10.096;2023-09-19T14:07:57;25.40;99.90
45549;DHT22;31270;48.328;10.096;2023-09-19T14:10:25;25.40;99.90
45549;DHT22;31270;48.328;10.096;2023-09-19T14:12:53;25.30;99.90
45549;DHT22;31270;48.328;10.096;2023-09-19T14:15:19;25.00;99.90
45549;DHT22;31270;48.328;10.096;2023-09-19T14:17:44;24.90;99.90
45549;DHT22;31270;48.328;10.096;2023-09-19T14:20:11;24.90;99.90
45549;DHT22;31270;48.328;10.096;2023-09-19T14:22:37;24.70;99.90
45549;DHT22;31270;48.328;10.096;2023-09-19T14:25:04;24.50;99.90
45549;DHT22;31270;48.328;10.096;2023-09-19T14:27:30;24.50;99.90
45549;DHT22;31270;48.328;10.096;2023-09-19T14:29:55;24.50;99.90
45549;DHT22;31270;48.328;10.096;2023-09-19T14:32:23;24.30;99.90
45549;DHT22;31270;48.328;10.096;2023-09-19T14:34:48;24.40;99.90
45549;DHT22;31270;48.328;10.096;2023-09-19T14:37:14;24.30;99.90
45549;DHT22;31270;48.328;10.096;2023-09-19T14:39:42;24.30;99.90
45549;DHT22;31270;48.328;10.096;2023-09-19T14:42:10;24.00;99.90
45549;DHT22;31270;48.328;10.096;2023-09-19T14:44:36;23.80;99.90
45549;DHT22;31270;48.328;10.096;2023-09-19T14:47:03;23.70;99.90
45549;DHT22;31270;48.328;10.096;2023-09-19T14:49:33;23.50;99.90
45549;DHT22;31270;48.328;10.096;2023-09-19T14:51:59;23.60;99.90
45549;DHT22;31270;48.328;10.096;2023-09-19T14:54:25;23.60;99.90
45549;DHT22;31270;48.328;10.096;2023-09-19T14:56:54;23.60;99.90
45549;DHT22;31270;48.328;10.096;2023-09-19T14:59:33;23.60;99.90
45549;DHT22;31270;48.328;10.096;2023-09-19T15:01:59;23.50;99.90
45549;DHT22;31270;48.328;10.096;2023-09-19T15:04:26;23.40;99.90
45549;DHT22;31270;48.328;10.096;2023-09-19T15:06:53;23.20;99.90
45549;DHT22;31270;48.328;10.096;2023-09-19T15:09:23;23.20;99.90
45549;DHT22;31270;48.328;10.096;2023-09-19T15:11:55;23.20;99.90
45549;DHT22;31270;48.328;10.096;2023-09-19T15:14:21;23.30;99.90
45549;DHT22;31270;48.328;10.096;2023-09-19T15:16:48;23.20;99.90
45549;DHT22;31270;48.328;10.096;2023-09-19T15:19:20;23.20;99.90
45549;DHT22;31270;48.328;10.096;2023-09-19T15:21:48;23.20;99.90
45549;DHT22;31270;48.328;10.096;2023-09-19T15:24:13;23.20;99.90
45549;DHT22;31270;48.328;10.096;2023-09-19T15:26:40;23.20;99.90
45549;DHT22;31270;48.328;10.096;2023-09-19T15:29:06;22.90;99.90
45549;DHT22;31270;48.328;10.096;2023-09-19T15:31:33;22.80;99.90
45549;DHT22;31270;48.328;10.096;2023-09-19T15:33:58;22.70;99.90
45549;DHT22;31270;48.328;10.096;2023-09-19T15:36:24;22.70;99.90
45549;DHT22;31270;48.328;10.096;2023-09-19T15:39:04;22.60;99.90
45549;DHT22;31270;48.328;10.096;2023-09-19T15:41:36;22.50;99.90
45549;DHT22;31270;48.328;10.096;2023-09-19T15:44:11;22.40;99.90
45549;DHT22;31270;48.328;10.096;2023-09-19T15:46:37;22.30;99.90
45549;DHT22;31270;48.328;10.096;2023-09-19T15:49:03;22.20;99.90
45549;DHT22;31270;48.328;10.096;2023-09-19T15:51:29;22.10;99.90
45549;DHT22;31270;48.328;10.096;2023-09-19T15:53:55;22.20;99.90
45549;DHT22;31270;48.328;10.096;2023-09-19T15:56:23;22.10;99.90
45549;DHT22;31270;48.328;10.096;2023-09-19T15:58:50;22.00;99.90
45549;DHT22;31270;48.328;10.096;2023-09-19T16:01:17;21.90;99.90
45549;DHT22;31270;48.328;10.096;2023-09-19T16:03:53;21.80;99.90
45549;DHT22;31270;48.328;10.096;2023-09-19T16:06:23;21.80;99.90
45549;DHT22;31270;48.328;10.096;2023-09-19T16:09:01;21.70;99.90
45549;DHT22;31270;48.328;10.096;2023-09-19T16:11:31;21.70;99.90
45549;DHT22;31270;48.328;10.096;2023-09-19T16:13:57;21.50;99.90
45549;DHT22;31270;48.328;10.096;2023-09-19T16:16:24;21.50;99.90
45549;DHT22;31270;48.328;10.096;2023-09-19T16:18:55;21.30;99.90
45549;DHT22;31270;48.328;10.096;2023-09-19T16:21:26;21.20;99.90